Time;durP1;ratioP1;P1;durP2;ratioP2;P2;SDS_P1;SDS_P2;PMS_P1;PMS_P2;Temp;Humidity;BMP_temperature;BMP_pressure;BME280_temperature;BME280_humidity;BME280_pressure;Samples;Min_cycle;Max_cycle;Signal;HPM_P1;HPM_P2
2023/06/09 04:00:25;;;;;;;6.07;5.33;;;14.30;97.30;;;;;;5989937;23;20464;-88
2023/06/09 04:02:50;;;;;;;10.87;6.50;;;14.30;97.30;;;;;;4941055;28;20530;-87
2023/06/09 04:05:16;;;;;;;13.40;5.27;;;14.30;97.30;;;;;;4940603;29;20168;-87
2023/06/09 04:07:44;;;;;;;7.03;4.50;;;14.30;97.30;;;;;;4951043;29;20266;-87
2023/06/09 04:10:09;;;;;;;5.07;3.83;;;14.40;97.30;;;;;;4948286;29;20708;-88
2023/06/09 04:12:35;;;;;;;5.90;5.10;;;14.40;97.30;;;;;;4942882;29;20542;-87
2023/06/09 04:15:00;;;;;;;4.30;3.53;;;14.40;97.30;;;;;;4971131;23;20234;-85
2023/06/09 04:17:26;;;;;;;12.20;7.10;;;14.40;97.30;;;;;;4969447;28;20183;-84
2023/06/09 04:19:54;;;;;;;5.83;4.33;;;14.50;97.30;;;;;;4969883;28;20553;-87
2023/06/09 04:22:19;;;;;;;6.40;4.90;;;14.50;97.30;;;;;;4964971;28;20437;-84
2023/06/09 04:24:45;;;;;;;6.60;6.20;;;14.50;97.30;;;;;;4972086;28;21041;-85
2023/06/09 04:27:15;;;;;;;7.63;4.20;;;14.60;97.30;;;;;;4964343;28;20278;-85
2023/06/09 04:29:41;;;;;;;11.30;7.57;;;14.60;97.30;;;;;;4972214;28;20175;-85
2023/06/09 04:32:07;;;;;;;29.37;7.77;;;14.60;97.30;;;;;;4971839;28;20430;-84
2023/06/09 04:34:38;;;;;;;7.77;5.30;;;14.70;97.30;;;;;;4972741;28;20297;-84
2023/06/09 04:37:07;;;;;;;7.20;6.13;;;14.70;97.30;;;;;;4972053;28;21063;-84
2023/06/09 04:39:33;;;;;;;14.53;5.43;;;14.80;97.30;;;;;;4971884;28;20484;-86
2023/06/09 04:42:03;;;;;;;7.33;5.50;;;14.80;97.30;;;;;;4974549;28;20453;-86
2023/06/09 04:44:29;;;;;;;15.23;8.80;;;14.80;97.30;;;;;;4971936;28;20202;-86
2023/06/09 04:46:54;;;;;;;9.03;6.70;;;14.80;97.30;;;;;;4971347;28;20646;-83
2023/06/09 04:49:20;;;;;;;10.90;7.20;;;14.90;97.30;;;;;;4971197;28;20504;-85
2023/06/09 04:51:47;;;;;;;12.10;6.50;;;14.90;97.30;;;;;;4956190;28;20551;-85
2023/06/09 04:54:25;;;;;;;13.30;6.73;;;15.00;97.30;;;;;;4960886;28;20573;-86
2023/06/09 04:56:57;;;;;;;9.60;5.67;;;15.00;97.30;;;;;;4970548;28;20410;-83
2023/06/09 04:59:23;;;;;;;7.70;6.30;;;15.10;97.30;;;;;;4966154;28;20792;-85
2023/06/09 05:01:51;;;;;;;22.57;8.30;;;15.10;97.30;;;;;;4972844;28;20833;-84
2023/06/09 05:04:17;;;;;;;16.63;8.17;;;15.20;97.30;;;;;;4972520;28;20860;-83
2023/06/09 05:06:42;;;;;;;13.80;8.87;;;15.20;97.30;;;;;;4972469;28;20430;-85
2023/06/09 05:09:08;;;;;;;12.27;7.57;;;15.30;97.30;;;;;;4972175;28;20230;-85
2023/06/09 05:11:37;;;;;;;10.33;7.40;;;15.30;97.30;;;;;;4968879;28;20620;-85
2023/06/09 05:14:07;;;;;;;8.13;6.67;;;15.40;97.30;;;;;;4972741;28;20275;-84
2023/06/09 05:16:36;;;;;;;24.00;9.10;;;15.40;97.30;;;;;;4967877;28;20446;-84
2023/06/09 05:19:02;;;;;;;18.37;7.27;;;15.50;97.30;;;;;;4967998;28;20799;-83
2023/06/09 05:21:27;;;;;;;14.27;7.43;;;15.50;97.30;;;;;;4966800;28;20426;-87
2023/06/09 05:23:55;;;;;;;6.90;6.10;;;15.60;97.30;;;;;;4975003;28;20438;-84
2023/06/09 05:26:21;;;;;;;8.77;6.70;;;15.60;97.30;;;;;;4967056;28;20586;-85
2023/06/09 05:28:47;;;;;;;10.27;6.57;;;15.70;97.30;;;;;;4970235;28;20428;-84
2023/06/09 05:31:15;;;;;;;8.60;4.87;;;15.70;97.30;;;;;;4971005;28;20191;-85
2023/06/09 05:33:42;;;;;;;16.50;7.07;;;15.80;97.30;;;;;;4960295;28;20477;-85
2023/06/09 05:36:08;;;;;;;13.30;7.33;;;15.90;97.30;;;;;;4969367;28;20484;-86
2023/06/09 05:38:34;;;;;;;9.67;7.23;;;15.90;97.30;;;;;;4969466;28;20426;-85
2023/06/09 05:41:00;;;;;;;8.93;6.80;;;16.00;97.30;;;;;;4969050;28;20600;-86
2023/06/09 05:43:29;;;;;;;7.80;6.40;;;16.10;97.30;;;;;;4961125;28;20427;-83
2023/06/09 05:45:56;;;;;;;8.83;6.27;;;16.20;97.30;;;;;;4966851;28;20682;-84
2023/06/09 05:48:21;;;;;;;11.03;7.10;;;16.20;97.30;;;;;;4962651;28;20430;-86
2023/06/09 05:50:47;;;;;;;8.80;5.80;;;16.30;97.30;;;;;;4958636;28;20423;-85
2023/06/09 05:53:12;;;;;;;4.80;4.50;;;16.30;97.30;;;;;;4961326;28;20711;-86
2023/06/09 05:55:38;;;;;;;11.63;5.20;;;16.40;97.30;;;;;;4969467;28;20227;-84
2023/06/09 05:58:05;;;;;;;3.60;3.40;;;16.40;97.30;;;;;;4969067;28;20210;-84
2023/06/09 06:00:30;;;;;;;5.50;4.27;;;16.50;97.30;;;;;;4967218;28;20558;-84
2023/06/09 06:02:59;;;;;;;3.70;3.50;;;16.50;97.30;;;;;;4955909;28;20198;-85
2023/06/09 06:05:24;;;;;;;4.90;4.43;;;16.50;97.30;;;;;;4954830;28;20203;-86
2023/06/09 06:07:50;;;;;;;8.60;5.67;;;16.50;97.30;;;;;;4963366;28;20520;-86
2023/06/09 06:10:15;;;;;;;4.30;3.73;;;16.60;97.30;;;;;;4970304;28;20277;-84
2023/06/09 06:12:41;;;;;;;5.80;3.37;;;16.70;97.30;;;;;;4972369;28;20679;-86
2023/06/09 06:15:07;;;;;;;6.50;4.93;;;16.70;97.30;;;;;;4970201;28;20597;-84
2023/06/09 06:17:32;;;;;;;4.53;4.23;;;16.80;97.30;;;;;;4969591;28;20665;-86
2023/06/09 06:19:58;;;;;;;4.87;3.40;;;16.90;97.30;;;;;;4970702;28;20431;-86
2023/06/09 06:22:24;;;;;;;3.83;2.90;;;17.00;97.30;;;;;;4964831;28;20238;-86
2023/06/09 06:24:50;;;;;;;5.70;4.57;;;17.00;97.30;;;;;;4970600;28;20298;-85
2023/06/09 06:27:15;;;;;;;11.50;4.50;;;17.10;97.30;;;;;;4963226;28;20430;-84
2023/06/09 06:29:41;;;;;;;4.73;4.17;;;17.20;97.30;;;;;;4971265;28;20189;-85
2023/06/09 06:32:07;;;;;;;5.63;3.40;;;17.30;97.30;;;;;;4969904;28;20736;-84
2023/06/09 06:34:33;;;;;;;6.50;3.97;;;17.40;97.30;;;;;;4961738;28;20260;-85
2023/06/09 06:36:58;;;;;;;7.73;3.73;;;17.40;97.30;;;;;;4963815;28;20936;-84
2023/06/09 06:39:24;;;;;;;5.40;4.23;;;17.50;97.30;;;;;;4970650;28;20192;-86
2023/06/09 06:41:49;;;;;;;3.93;3.73;;;17.60;97.30;;;;;;4970791;28;20178;-86
2023/06/09 06:44:15;;;;;;;6.50;4.93;;;17.70;97.30;;;;;;4970491;28;20182;-86
2023/06/09 06:46:40;;;;;;;6.50;4.63;;;17.80;97.30;;;;;;4969687;28;20178;-86
2023/06/09 06:49:06;;;;;;;5.60;3.77;;;17.90;97.30;;;;;;4973132;28;20260;-84
2023/06/09 06:51:31;;;;;;;5.73;3.90;;;18.00;97.30;;;;;;4987521;28;20193;-86
2023/06/09 06:53:57;;;;;;;6.63;4.27;;;18.00;97.30;;;;;;4992662;28;20206;-86
2023/06/09 06:56:24;;;;;;;7.83;4.00;;;18.10;97.30;;;;;;4992210;28;20199;-85
2023/06/09 06:58:50;;;;;;;5.17;3.90;;;18.20;97.30;;;;;;4982790;28;20189;-87
2023/06/09 07:01:17;;;;;;;5.60;4.20;;;18.20;97.30;;;;;;4989082;28;20441;-86
2023/06/09 07:03:42;;;;;;;4.97;2.77;;;18.30;97.30;;;;;;4981926;28;20181;-85
2023/06/09 07:06:09;;;;;;;3.37;3.17;;;18.40;97.30;;;;;;4990904;28;20461;-84
2023/06/09 07:08:35;;;;;;;4.20;2.60;;;18.50;97.30;;;;;;4990025;28;20193;-85
2023/06/09 07:11:01;;;;;;;4.80;3.40;;;18.60;97.30;;;;;;4986810;28;20422;-85
2023/06/09 07:13:26;;;;;;;3.83;3.20;;;18.60;97.30;;;;;;4980169;28;20445;-86
2023/06/09 07:15:52;;;;;;;4.00;3.80;;;18.70;97.30;;;;;;4985840;28;20469;-86
2023/06/09 07:18:17;;;;;;;6.90;4.20;;;18.70;97.30;;;;;;4970455;28;20195;-88
2023/06/09 07:20:43;;;;;;;7.87;4.57;;;18.80;97.30;;;;;;4969629;28;20463;-85
2023/06/09 07:23:08;;;;;;;9.27;3.90;;;18.90;97.30;;;;;;4971237;28;20183;-86
2023/06/09 07:25:34;;;;;;;4.77;3.33;;;18.90;97.30;;;;;;4970031;28;20270;-87
2023/06/09 07:27:59;;;;;;;7.63;4.93;;;19.00;97.30;;;;;;4969863;28;20780;-84
2023/06/09 07:30:25;;;;;;;7.03;3.70;;;19.10;97.30;;;;;;4970040;28;20189;-86
2023/06/09 07:32:50;;;;;;;6.63;4.77;;;19.10;97.30;;;;;;4960801;28;20269;-87
2023/06/09 07:35:19;;;;;;;4.53;3.37;;;19.20;97.30;;;;;;4968066;28;20639;-85
2023/06/09 07:37:46;;;;;;;6.07;4.73;;;19.30;97.30;;;;;;4969679;28;20181;-86
2023/06/09 07:40:11;;;;;;;3.47;2.53;;;19.40;97.30;;;;;;4969989;28;20422;-86
2023/06/09 07:42:37;;;;;;;3.73;3.20;;;19.50;97.30;;;;;;4961698;28;20801;-86
2023/06/09 07:45:03;;;;;;;3.60;3.40;;;19.60;97.00;;;;;;4960767;28;20194;-86
2023/06/09 07:47:29;;;;;;;5.60;3.23;;;19.70;96.60;;;;;;4969359;28;20724;-86
2023/06/09 07:49:54;;;;;;;4.83;4.10;;;19.80;96.30;;;;;;4965960;28;20524;-88
2023/06/09 07:52:20;;;;;;;8.00;3.80;;;19.90;95.20;;;;;;4969720;28;20229;-87
2023/06/09 07:54:45;;;;;;;27.97;3.50;;;20.00;94.70;;;;;;4968997;28;20207;-86
2023/06/09 07:57:11;;;;;;;3.53;2.73;;;20.10;93.60;;;;;;4965875;28;20432;-87
2023/06/09 07:59:36;;;;;;;3.70;3.50;;;20.20;93.40;;;;;;4971589;28;20644;-87
2023/06/09 08:02:02;;;;;;;6.17;2.90;;;20.30;92.80;;;;;;4973361;28;20178;-84
2023/06/09 08:04:29;;;;;;;5.27;4.03;;;20.30;92.20;;;;;;4972849;28;20210;-87
2023/06/09 08:06:58;;;;;;;6.53;3.80;;;20.40;92.30;;;;;;4973285;28;20236;-85
2023/06/09 08:09:24;;;;;;;2.70;2.40;;;20.50;91.60;;;;;;4973477;28;20811;-84
2023/06/09 08:11:50;;;;;;;4.67;3.30;;;20.60;91.50;;;;;;4973093;28;20422;-87
2023/06/09 08:14:16;;;;;;;5.03;4.37;;;20.70;91.50;;;;;;4972703;28;20464;-87
2023/06/09 08:16:42;;;;;;;5.30;3.37;;;20.70;91.40;;;;;;4971776;28;20277;-85
2023/06/09 08:19:07;;;;;;;5.37;3.87;;;20.90;91.70;;;;;;4971949;28;20568;-87
2023/06/09 08:21:33;;;;;;;17.73;2.90;;;20.90;90.80;;;;;;4970815;28;20213;-85
2023/06/09 08:23:58;;;;;;;2.77;2.57;;;21.00;90.90;;;;;;4971619;28;20183;-87
2023/06/09 08:26:24;;;;;;;14.50;4.13;;;21.10;90.60;;;;;;4966110;28;20215;-85
2023/06/09 08:28:50;;;;;;;6.90;3.23;;;21.30;90.80;;;;;;4964449;28;20182;-86
2023/06/09 08:31:16;;;;;;;3.90;2.50;;;21.30;90.30;;;;;;4973114;28;20421;-87
2023/06/09 08:33:42;;;;;;;11.83;3.57;;;21.40;90.20;;;;;;4972230;28;20311;-87
2023/06/09 08:36:09;;;;;;;4.27;3.33;;;21.50;89.80;;;;;;4966365;28;20590;-85
2023/06/09 08:38:38;;;;;;;5.73;3.33;;;21.60;89.40;;;;;;4971998;28;20232;-87
2023/06/09 08:41:08;;;;;;;3.03;2.70;;;21.70;89.20;;;;;;4972025;28;21066;-85
2023/06/09 08:43:33;;;;;;;3.37;3.17;;;21.80;89.50;;;;;;4965960;28;20422;-87
2023/06/09 08:46:11;;;;;;;7.10;3.10;;;21.90;89.00;;;;;;4958898;28;20445;-86
2023/06/09 08:48:57;;;;;;;5.50;3.10;;;22.00;89.20;;;;;;4972815;28;20186;-88
2023/06/09 08:51:22;;;;;;;7.97;3.83;;;22.10;89.30;;;;;;4958046;28;20429;-84
2023/06/09 08:53:52;;;;;;;3.83;3.00;;;22.20;89.10;;;;;;4969969;28;20470;-87
2023/06/09 08:56:21;;;;;;;3.17;2.97;;;22.20;88.90;;;;;;4969961;28;20211;-85
2023/06/09 08:58:47;;;;;;;4.33;3.17;;;22.40;88.90;;;;;;4965841;28;20743;-85
2023/06/09 09:01:14;;;;;;;4.43;3.40;;;22.50;89.60;;;;;;4971550;28;20492;-88
2023/06/09 09:03:40;;;;;;;5.10;3.60;;;22.60;87.20;;;;;;4971477;28;20438;-86
2023/06/09 09:06:06;;;;;;;7.87;5.17;;;22.60;86.60;;;;;;4963376;28;20541;-85
2023/06/09 09:08:32;;;;;;;5.73;3.13;;;22.70;86.10;;;;;;4972109;28;20653;-87
2023/06/09 09:10:57;;;;;;;5.10;2.53;;;22.80;86.20;;;;;;4964395;28;20504;-84
2023/06/09 09:13:31;;;;;;;2.80;2.60;;;22.90;85.40;;;;;;4971150;28;20186;-85
2023/06/09 09:15:59;;;;;;;5.33;3.60;;;22.90;85.20;;;;;;4973207;28;20245;-85
2023/06/09 09:18:30;;;;;;;4.00;3.27;;;23.00;85.50;;;;;;4970696;28;20440;-86
2023/06/09 09:20:56;;;;;;;5.33;3.50;;;23.10;85.50;;;;;;4970802;28;20422;-85
2023/06/09 09:23:32;;;;;;;7.10;4.00;;;23.20;85.50;;;;;;4971754;28;20492;-84
2023/06/09 09:26:03;;;;;;;16.87;4.03;;;23.30;84.00;;;;;;4963286;28;20206;-86
2023/06/09 09:28:42;;;;;;;4.10;3.90;;;23.40;83.80;;;;;;4972180;28;20465;-86
2023/06/09 09:31:08;;;;;;;2.10;1.97;;;23.50;84.30;;;;;;4963331;28;20481;-85
2023/06/09 09:33:36;;;;;;;3.37;2.50;;;23.50;84.10;;;;;;4966555;28;20428;-86
2023/06/09 09:36:03;;;;;;;3.80;2.53;;;23.50;83.70;;;;;;4967228;28;20494;-85
2023/06/09 09:38:29;;;;;;;4.87;3.10;;;23.60;83.70;;;;;;4963757;28;20427;-86
2023/06/09 09:40:59;;;;;;;3.87;2.90;;;23.60;83.90;;;;;;4968498;28;20426;-86
2023/06/09 09:43:26;;;;;;;3.63;3.43;;;23.70;83.70;;;;;;4958588;28;20986;-86
2023/06/09 09:45:53;;;;;;;4.97;2.70;;;23.70;83.60;;;;;;4961428;28;20476;-87
2023/06/09 09:48:21;;;;;;;4.60;3.20;;;23.80;82.70;;;;;;4971247;28;20441;-85
2023/06/09 09:50:53;;;;;;;6.90;3.90;;;23.80;83.00;;;;;;4971064;28;20513;-87
2023/06/09 09:53:23;;;;;;;3.67;3.40;;;23.90;82.90;;;;;;4970971;28;20426;-86
2023/06/09 09:55:52;;;;;;;4.93;4.03;;;24.00;83.30;;;;;;4963326;28;20473;-87
2023/06/09 09:58:19;;;;;;;7.10;3.87;;;24.10;83.50;;;;;;4971690;28;20426;-86
2023/06/09 10:00:46;;;;;;;7.13;4.93;;;24.20;84.20;;;;;;4969520;28;20429;-87
2023/06/09 10:03:19;;;;;;;6.90;3.03;;;24.30;84.00;;;;;;4960752;28;20423;-86
2023/06/09 10:05:49;;;;;;;3.97;3.20;;;24.40;83.70;;;;;;4962092;28;20449;-86
2023/06/09 10:08:30;;;;;;;9.60;4.20;;;24.50;81.80;;;;;;4973635;28;20785;-84
2023/06/09 10:10:56;;;;;;;5.10;3.90;;;24.50;82.20;;;;;;4974260;28;20447;-87
2023/06/09 10:13:26;;;;;;;3.57;3.30;;;24.60;82.50;;;;;;4972007;28;20437;-86
2023/06/09 10:15:55;;;;;;;6.53;3.83;;;24.70;82.50;;;;;;4972544;28;20484;-86
2023/06/09 10:20:52;;;;;;;3.43;3.20;;;24.90;82.50;;;;;;4950603;29;20487;-68
2023/06/09 10:23:19;;;;;;;5.87;4.80;;;25.00;81.40;;;;;;4940313;29;21001;-68
2023/06/09 10:25:49;;;;;;;3.13;2.93;;;25.10;82.70;;;;;;4950160;29;20576;-67
2023/06/09 10:30:48;;;;;;;5.70;2.63;;;25.20;82.00;;;;;;4952770;28;20526;-68
2023/06/09 10:33:32;;;;;;;5.50;2.37;;;25.30;81.50;;;;;;4968772;28;20757;-67
2023/06/09 10:35:59;;;;;;;9.40;4.40;;;25.30;81.70;;;;;;4968898;28;20481;-68
2023/06/09 10:38:30;;;;;;;8.30;3.93;;;25.40;81.40;;;;;;4984834;28;21051;-68
2023/06/09 10:41:19;;;;;;;6.83;3.83;;;25.50;82.00;;;;;;4976949;28;20485;-68
2023/06/09 10:43:50;;;;;;;5.53;3.17;;;25.70;82.00;;;;;;4956060;28;20454;-68
2023/06/09 10:46:16;;;;;;;4.20;3.20;;;25.80;81.10;;;;;;4969664;28;20428;-68
2023/06/09 10:48:48;;;;;;;3.50;3.07;;;25.90;80.70;;;;;;4969152;28;20430;-66
2023/06/09 10:51:35;;;;;;;2.93;2.17;;;26.10;79.80;;;;;;4967929;28;20916;-68
2023/06/09 10:54:07;;;;;;;17.27;2.60;;;26.10;78.20;;;;;;4952426;28;20462;-67
2023/06/09 10:56:40;;;;;;;5.10;2.50;;;26.20;77.30;;;;;;4984626;28;20430;-67
2023/06/09 10:59:26;;;;;;;3.00;2.83;;;26.20;79.00;;;;;;4955767;28;20849;-68
2023/06/09 11:02:04;;;;;;;2.77;2.60;;;26.30;77.60;;;;;;4936213;28;20544;-67
2023/06/09 11:04:44;;;;;;;5.77;3.57;;;26.40;76.40;;;;;;4958761;28;20481;-67
2023/06/09 11:07:20;;;;;;;3.63;3.07;;;26.40;77.30;;;;;;4964112;28;20430;-68
2023/06/09 11:09:49;;;;;;;3.77;3.10;;;26.50;78.60;;;;;;4961028;28;20428;-68
2023/06/09 11:12:49;;;;;;;3.70;2.80;;;26.60;78.40;;;;;;4978071;28;20842;-67
2023/06/09 11:15:16;;;;;;;2.83;2.60;;;26.70;77.90;;;;;;4957521;28;20531;-68
2023/06/09 11:17:45;;;;;;;3.83;3.10;;;26.80;75.70;;;;;;4957587;28;20422;-68
2023/06/09 11:20:17;;;;;;;3.40;2.93;;;26.80;78.40;;;;;;4962122;28;20445;-67
2023/06/09 11:22:49;;;;;;;3.37;3.00;;;26.90;77.20;;;;;;4952695;28;20407;-67
2023/06/09 11:25:15;;;;;;;5.37;2.77;;;27.00;78.20;;;;;;4966406;28;20422;-68
2023/06/09 11:27:41;;;;;;;5.80;2.83;;;27.10;76.60;;;;;;4964338;28;20426;-68
2023/06/09 11:30:17;;;;;;;7.60;2.83;;;27.20;75.80;;;;;;4964796;28;20299;-67
2023/06/09 11:32:50;;;;;;;2.13;2.00;;;27.30;75.80;;;;;;4973735;28;20964;-68
2023/06/09 11:35:25;;;;;;;3.57;2.87;;;27.40;75.80;;;;;;4977857;28;21365;-67
2023/06/09 11:37:58;;;;;;;2.17;2.00;;;27.50;74.60;;;;;;4963504;28;20466;-67
2023/06/09 11:40:29;;;;;;;4.10;2.33;;;27.60;72.80;;;;;;4960755;28;20434;-68
2023/06/09 11:42:55;;;;;;;3.63;3.50;;;27.60;73.90;;;;;;4963760;28;20430;-68
2023/06/09 11:45:25;;;;;;;2.43;2.23;;;27.70;73.00;;;;;;4969296;28;20413;-68
2023/06/09 11:47:56;;;;;;;4.43;3.23;;;27.80;72.60;;;;;;4969123;28;20433;-67
2023/06/09 11:50:22;;;;;;;4.27;3.90;;;27.90;73.10;;;;;;4970028;28;20425;-68
2023/06/09 11:53:02;;;;;;;5.60;2.90;;;28.00;71.80;;;;;;4969130;28;20430;-68
2023/06/09 11:55:28;;;;;;;5.90;2.90;;;28.00;73.10;;;;;;4965879;28;20470;-70
2023/06/09 11:57:54;;;;;;;13.47;5.33;;;28.10;72.10;;;;;;4967034;28;20525;-68
2023/06/09 12:00:26;;;;;;;3.20;2.73;;;28.20;72.30;;;;;;4966906;28;20498;-68
2023/06/09 12:02:53;;;;;;;4.13;2.27;;;28.30;72.40;;;;;;4968923;28;20184;-68
2023/06/09 12:05:19;;;;;;;2.07;1.93;;;28.30;71.80;;;;;;4975154;28;20431;-69
2023/06/09 12:07:46;;;;;;;2.30;2.10;;;28.40;73.10;;;;;;4966769;28;20426;-68
2023/06/09 12:10:23;;;;;;;4.50;2.50;;;28.40;72.50;;;;;;4972554;28;21047;-68
2023/06/09 12:12:54;;;;;;;5.60;2.67;;;28.40;71.90;;;;;;4966416;28;20429;-67
2023/06/09 12:15:22;;;;;;;2.57;2.43;;;28.40;71.50;;;;;;4961228;28;20517;-67
2023/06/09 12:17:50;;;;;;;3.90;2.20;;;28.40;72.20;;;;;;4965963;28;20422;-69
2023/06/09 12:20:25;;;;;;;3.00;2.33;;;28.50;74.50;;;;;;4963222;28;20429;-69
2023/06/09 12:23:01;;;;;;;2.47;2.37;;;28.70;70.60;;;;;;4968748;28;20422;-69
2023/06/09 12:25:35;;;;;;;4.03;2.77;;;28.80;71.00;;;;;;4967571;28;20521;-68
2023/06/09 12:28:23;;;;;;;2.00;1.90;;;29.00;71.80;;;;;;4964112;28;20520;-68
2023/06/09 12:30:53;;;;;;;3.03;2.83;;;29.10;70.90;;;;;;4964511;28;20907;-67
2023/06/09 12:33:20;;;;;;;4.43;3.13;;;29.10;69.20;;;;;;4971249;28;20490;-67
2023/06/09 12:35:50;;;;;;;4.50;2.50;;;29.10;67.50;;;;;;4957525;28;21010;-67
2023/06/09 12:38:21;;;;;;;3.40;3.20;;;29.00;68.50;;;;;;4962288;28;20417;-67
2023/06/09 12:41:05;;;;;;;4.70;3.13;;;29.10;69.20;;;;;;4978944;28;20446;-67
2023/06/09 12:43:43;;;;;;;4.87;3.20;;;29.10;68.30;;;;;;4955568;28;20426;-67
2023/06/09 12:46:09;;;;;;;2.70;2.50;;;29.10;69.00;;;;;;4965991;28;20427;-67
2023/06/09 12:48:57;;;;;;;3.70;2.00;;;29.00;68.20;;;;;;4965361;28;20941;-68
2023/06/09 12:51:23;;;;;;;3.03;2.80;;;28.80;68.90;;;;;;4963178;28;20678;-67
2023/06/09 12:53:50;;;;;;;3.00;2.00;;;28.70;67.50;;;;;;4976792;28;21036;-67
2023/06/09 12:56:16;;;;;;;2.60;2.20;;;28.60;68.20;;;;;;4957838;28;20431;-67
2023/06/09 12:58:42;;;;;;;3.30;2.87;;;28.60;68.40;;;;;;4959414;28;20429;-68
2023/06/09 13:01:07;;;;;;;4.33;2.20;;;28.70;70.70;;;;;;4966263;28;20447;-68
2023/06/09 13:03:33;;;;;;;2.47;2.30;;;28.70;69.70;;;;;;4953451;28;20583;-67
2023/06/09 13:05:59;;;;;;;2.53;2.23;;;28.80;69.00;;;;;;4968267;28;20587;-66
2023/06/09 13:08:24;;;;;;;3.37;3.23;;;29.00;69.80;;;;;;4975910;28;20607;-67
2023/06/09 13:10:50;;;;;;;4.47;2.77;;;29.10;68.10;;;;;;4957203;28;20478;-67
2023/06/09 13:13:15;;;;;;;8.67;3.70;;;29.00;67.70;;;;;;4968423;28;20233;-68
2023/06/09 13:15:41;;;;;;;2.30;2.13;;;28.90;67.20;;;;;;4967508;28;20217;-68
2023/06/09 13:18:11;;;;;;;2.90;2.70;;;28.90;69.40;;;;;;4975474;28;20185;-68
2023/06/09 13:20:36;;;;;;;3.00;2.80;;;29.10;70.10;;;;;;4957687;28;20683;-67
2023/06/09 13:23:02;;;;;;;3.10;2.60;;;29.20;68.10;;;;;;4956223;28;20426;-68
2023/06/09 13:25:28;;;;;;;3.40;3.00;;;29.30;67.60;;;;;;4957341;28;20287;-68
2023/06/09 13:27:53;;;;;;;3.67;2.70;;;29.40;66.00;;;;;;4967621;28;20183;-69
2023/06/09 13:30:19;;;;;;;5.20;3.60;;;29.30;66.10;;;;;;4971938;28;20227;-67
2023/06/09 13:32:44;;;;;;;3.50;2.97;;;29.20;66.40;;;;;;4969390;28;20581;-68
2023/06/09 13:35:10;;;;;;;4.57;2.10;;;29.00;66.90;;;;;;4969920;28;20212;-68
2023/06/09 13:37:36;;;;;;;3.20;2.47;;;28.80;67.30;;;;;;4963630;28;20228;-68
2023/06/09 13:40:02;;;;;;;6.80;4.07;;;28.70;67.90;;;;;;4967987;28;20488;-68
2023/06/09 13:42:27;;;;;;;5.87;2.63;;;28.80;69.50;;;;;;4968422;28;20714;-68
2023/06/09 13:44:53;;;;;;;4.03;2.30;;;29.00;68.30;;;;;;4966641;28;20182;-67
2023/06/09 13:47:18;;;;;;;3.07;2.43;;;29.20;66.30;;;;;;4969928;28;20609;-68
2023/06/09 13:49:44;;;;;;;3.23;2.50;;;29.30;67.90;;;;;;4966276;28;20183;-68
2023/06/09 13:52:10;;;;;;;4.73;3.07;;;29.50;67.50;;;;;;4966407;28;20260;-67
2023/06/09 13:54:35;;;;;;;2.63;2.13;;;29.60;66.70;;;;;;4961841;28;20237;-68
2023/06/09 13:57:01;;;;;;;2.37;1.90;;;29.60;65.30;;;;;;4962392;28;20171;-68
2023/06/09 13:59:26;;;;;;;3.60;2.30;;;29.60;65.20;;;;;;4961494;28;20643;-69
2023/06/09 14:01:53;;;;;;;5.70;2.80;;;29.70;64.00;;;;;;4968056;28;20206;-67
2023/06/09 14:04:19;;;;;;;2.20;2.00;;;29.80;66.50;;;;;;4969662;28;20209;-68
2023/06/09 14:06:44;;;;;;;3.03;2.60;;;29.90;67.00;;;;;;4969287;28;20422;-69
2023/06/09 14:09:12;;;;;;;3.43;3.23;;;30.20;67.70;;;;;;4980563;28;20662;-70
2023/06/09 14:11:38;;;;;;;2.73;2.30;;;30.30;65.10;;;;;;4966288;28;20226;-69
2023/06/09 14:14:07;;;;;;;2.53;2.33;;;30.50;64.70;;;;;;4969194;28;20557;-68
2023/06/09 14:16:33;;;;;;;4.50;2.67;;;30.50;64.50;;;;;;4969131;28;20425;-69
2023/06/09 14:18:59;;;;;;;4.00;2.77;;;30.40;64.20;;;;;;4967075;28;20534;-69
2023/06/09 14:21:25;;;;;;;3.43;2.73;;;30.20;64.20;;;;;;4967501;28;20553;-70
2023/06/09 14:23:51;;;;;;;3.23;2.73;;;30.20;65.30;;;;;;4966927;28;20562;-68
2023/06/09 14:26:17;;;;;;;3.70;3.20;;;30.30;64.60;;;;;;4965480;28;20914;-68
2023/06/09 14:28:42;;;;;;;3.57;3.40;;;30.30;64.50;;;;;;4961306;28;20215;-70
2023/06/09 14:31:08;;;;;;;4.03;3.00;;;30.30;64.50;;;;;;4968740;28;20206;-68
2023/06/09 14:33:34;;;;;;;3.60;3.07;;;30.20;63.80;;;;;;4976763;28;20298;-66
2023/06/09 14:35:59;;;;;;;2.77;2.60;;;29.90;63.80;;;;;;4967855;28;20206;-69
2023/06/09 14:38:25;;;;;;;4.60;2.90;;;29.60;64.70;;;;;;4965361;28;20415;-69
2023/06/09 14:40:51;;;;;;;5.23;2.83;;;29.60;64.90;;;;;;4966616;28;20194;-69
2023/06/09 14:43:16;;;;;;;4.20;2.87;;;29.70;65.20;;;;;;4970218;28;20548;-70
2023/06/09 14:45:42;;;;;;;12.33;3.40;;;29.90;65.10;;;;;;4970154;28;20240;-69
2023/06/09 14:48:08;;;;;;;5.90;2.93;;;30.10;65.60;;;;;;4968962;28;20206;-69
2023/06/09 14:50:40;;;;;;;4.97;3.10;;;30.30;63.80;;;;;;4968485;28;20202;-69
2023/06/09 14:53:07;;;;;;;2.93;2.77;;;30.40;63.20;;;;;;4968617;28;20210;-66
2023/06/09 14:55:37;;;;;;;3.60;2.77;;;30.50;62.30;;;;;;4969379;28;21064;-69
2023/06/09 14:58:04;;;;;;;2.67;2.53;;;30.60;63.30;;;;;;4969331;28;20468;-68
2023/06/09 15:00:31;;;;;;;2.53;2.33;;;30.70;63.70;;;;;;4976635;28;20429;-68
2023/06/09 15:02:58;;;;;;;3.47;2.97;;;30.80;63.70;;;;;;4976005;28;20422;-68
2023/06/09 15:05:29;;;;;;;3.23;3.03;;;31.00;62.20;;;;;;4969831;28;20520;-68
2023/06/09 15:07:57;;;;;;;7.33;3.23;;;31.00;62.30;;;;;;4969041;28;20429;-68
2023/06/09 15:10:33;;;;;;;4.40;2.80;;;31.00;62.20;;;;;;4969800;28;20887;-69
2023/06/09 15:13:00;;;;;;;4.00;3.10;;;31.00;62.90;;;;;;4968908;28;20432;-69
2023/06/09 15:15:27;;;;;;;2.67;2.47;;;31.10;63.00;;;;;;4984364;28;20781;-68
2023/06/09 15:17:57;;;;;;;4.73;2.50;;;31.10;61.80;;;;;;4971326;28;21021;-69
2023/06/09 15:20:24;;;;;;;4.37;2.83;;;31.10;63.80;;;;;;4960142;28;20422;-69
2023/06/09 15:22:54;;;;;;;4.30;3.73;;;31.20;63.00;;;;;;4967929;28;20457;-69
2023/06/09 15:25:27;;;;;;;4.57;3.17;;;31.30;62.50;;;;;;4964408;28;20822;-68
2023/06/09 15:27:56;;;;;;;2.50;2.30;;;31.40;63.60;;;;;;4966226;28;20430;-69
2023/06/09 15:30:29;;;;;;;4.47;3.20;;;31.40;62.30;;;;;;4968228;28;20985;-67
2023/06/09 15:33:01;;;;;;;5.30;2.70;;;31.50;63.10;;;;;;4969207;28;20429;-69
2023/06/09 15:35:30;;;;;;;4.67;2.87;;;31.60;62.80;;;;;;4983891;28;20995;-69
2023/06/09 15:38:01;;;;;;;3.40;2.23;;;31.70;62.90;;;;;;4968401;28;20453;-68
2023/06/09 15:40:27;;;;;;;3.00;2.50;;;31.80;62.70;;;;;;4969427;28;20440;-69
2023/06/09 15:42:53;;;;;;;3.50;2.60;;;31.80;62.20;;;;;;4968140;28;20673;-69
2023/06/09 15:45:18;;;;;;;2.73;2.57;;;31.80;62.20;;;;;;4968580;28;20775;-67
2023/06/09 15:47:46;;;;;;;5.07;2.57;;;31.50;61.10;;;;;;4968923;28;20655;-66
2023/06/09 15:50:11;;;;;;;4.00;3.33;;;31.10;61.50;;;;;;4967305;28;20281;-67
2023/06/09 15:52:37;;;;;;;3.10;2.90;;;30.60;62.40;;;;;;4968701;28;20524;-68
2023/06/09 15:55:04;;;;;;;7.00;2.13;;;30.20;62.80;;;;;;4967934;28;20760;-67
2023/06/09 15:57:30;;;;;;;3.77;2.97;;;29.90;62.90;;;;;;4970557;28;20179;-67
2023/06/09 15:59:56;;;;;;;11.10;2.70;;;29.50;63.80;;;;;;4965500;28;20780;-68
2023/06/09 16:02:21;;;;;;;4.50;2.90;;;29.20;64.20;;;;;;4965075;28;20203;-68
2023/06/09 16:04:47;;;;;;;4.87;2.30;;;29.00;64.70;;;;;;4964989;28;20194;-67
2023/06/09 16:07:13;;;;;;;5.37;4.00;;;28.80;65.00;;;;;;4967947;28;20253;-67
2023/06/09 16:09:39;;;;;;;3.93;3.03;;;28.60;65.80;;;;;;4981074;28;20187;-68
2023/06/09 16:12:05;;;;;;;4.90;3.00;;;28.50;65.80;;;;;;4968596;28;20450;-67
2023/06/09 16:14:30;;;;;;;4.07;2.63;;;28.40;66.10;;;;;;4968442;28;20218;-67
2023/06/09 16:19:24;;;;;;;2.90;2.20;;;28.20;67.00;;;;;;4940230;29;20282;-67
2023/06/09 16:21:49;;;;;;;3.23;2.60;;;28.10;67.20;;;;;;4941686;29;21636;-67
2023/06/09 16:24:15;;;;;;;4.67;2.33;;;28.00;67.90;;;;;;4933244;29;20184;-66
2023/06/09 16:26:40;;;;;;;4.57;2.80;;;28.00;68.10;;;;;;4934666;29;20219;-66
2023/06/09 16:29:06;;;;;;;2.60;2.40;;;27.90;67.70;;;;;;4932209;29;20243;-66
2023/06/09 16:31:31;;;;;;;3.10;2.90;;;27.80;68.10;;;;;;4926628;29;20619;-66
2023/06/09 16:33:57;;;;;;;5.23;3.00;;;27.70;68.40;;;;;;4942612;29;20707;-66
2023/06/09 16:36:22;;;;;;;3.57;3.10;;;27.70;68.70;;;;;;4936086;29;20195;-66
2023/06/09 16:38:48;;;;;;;4.50;3.23;;;27.70;69.30;;;;;;4928806;29;20188;-66
2023/06/09 16:41:14;;;;;;;2.70;2.50;;;27.70;69.30;;;;;;4942743;29;20234;-66
2023/06/09 16:43:39;;;;;;;6.90;2.80;;;27.70;70.30;;;;;;4940378;29;20184;-67
2023/06/09 16:46:05;;;;;;;5.10;3.40;;;27.70;70.30;;;;;;4942111;29;20175;-66
2023/06/09 16:48:33;;;;;;;10.43;3.70;;;27.90;70.10;;;;;;4946163;29;20254;-66
2023/06/09 16:51:02;;;;;;;4.53;3.33;;;28.00;69.50;;;;;;4944862;28;20203;-66
2023/06/09 16:53:28;;;;;;;8.00;4.93;;;28.10;70.00;;;;;;4937327;29;20781;-66
2023/06/09 16:55:53;;;;;;;7.53;2.80;;;28.10;70.80;;;;;;4935793;29;20524;-66